Time;durP1;ratioP1;P1;durP2;ratioP2;P2;SDS_P1;SDS_P2;PMS_P1;PMS_P2;Temp;Humidity;BMP_temperature;BMP_pressure;BME280_temperature;BME280_humidity;BME280_pressure;Samples;Min_cycle;Max_cycle;Signal;HPM_P1;HPM_P2
2022/04/18 00:01:35;;;;;;;2.67;1.17;;;;;;;;;;4909872;29;20107;-62
2022/04/18 00:04:00;;;;;;;2.38;0.93;;;;;;;;;;4911970;29;20044;-63
2022/04/18 00:06:26;;;;;;;2.17;1.15;;;;;;;;;;4900631;29;20057;-63
2022/04/18 00:08:51;;;;;;;1.77;1.00;;;;;;;;;;4910040;29;20087;-63
2022/04/18 00:11:17;;;;;;;2.60;1.10;;;;;;;;;;4911957;29;20115;-63
2022/04/18 00:13:42;;;;;;;1.00;0.90;;;;;;;;;;4912235;29;20111;-62
2022/04/18 00:16:08;;;;;;;1.58;1.30;;;;;;;;;;4909292;29;20048;-63
2022/04/18 00:18:34;;;;;;;2.53;1.20;;;;;;;;;;4908770;29;20095;-62
2022/04/18 00:20:59;;;;;;;1.92;0.90;;;;;;;;;;4909427;29;20096;-62
2022/04/18 00:23:24;;;;;;;2.13;1.23;;;;;;;;;;4910522;29;20067;-64
2022/04/18 00:25:50;;;;;;;2.83;1.13;;;;;;;;;;4913368;29;20028;-62
2022/04/18 00:28:15;;;;;;;1.27;0.90;;;;;;;;;;4909278;29;20205;-63
2022/04/18 00:30:41;;;;;;;1.35;1.00;;;;;;;;;;4911550;29;20040;-63
2022/04/18 00:33:09;;;;;;;2.10;1.02;;;;;;;;;;4910138;29;20122;-62
2022/04/18 00:35:35;;;;;;;1.77;1.00;;;;;;;;;;4912948;29;20131;-62
2022/04/18 00:38:01;;;;;;;2.60;1.20;;;;;;;;;;4909279;29;20044;-61
2022/04/18 00:40:26;;;;;;;1.30;1.02;;;;;;;;;;4908860;29;20044;-64
2022/04/18 00:43:00;;;;;;;1.40;0.98;;;;;;;;;;4911510;29;20399;-62
2022/04/18 00:45:25;;;;;;;1.85;1.10;;;;;;;;;;4910308;29;20045;-62
2022/04/18 00:47:51;;;;;;;2.78;1.02;;;;;;;;;;4911374;29;20079;-64
2022/04/18 00:50:16;;;;;;;1.65;1.02;;;;;;;;;;4912628;29;20043;-63
2022/04/18 00:52:42;;;;;;;1.58;1.10;;;;;;;;;;4915759;29;20028;-63
2022/04/18 00:55:08;;;;;;;1.85;1.30;;;;;;;;;;4916127;29;20071;-64
2022/04/18 00:57:35;;;;;;;1.90;1.10;;;;;;;;;;4914440;29;20052;-64
2022/04/18 01:00:01;;;;;;;1.92;1.40;;;;;;;;;;4917010;29;20091;-62
2022/04/18 01:02:26;;;;;;;1.77;1.33;;;;;;;;;;4918450;29;20162;-63
2022/04/18 01:04:52;;;;;;;1.25;1.00;;;;;;;;;;4932594;29;20466;-63
2022/04/18 01:07:17;;;;;;;3.40;1.38;;;;;;;;;;4914741;29;20412;-63
2022/04/18 01:09:43;;;;;;;3.38;1.50;;;;;;;;;;4915211;29;20048;-63
2022/04/18 01:12:08;;;;;;;2.75;1.33;;;;;;;;;;4917317;29;20127;-61
2022/04/18 01:14:36;;;;;;;3.30;1.50;;;;;;;;;;4915135;29;20059;-61
2022/04/18 01:17:01;;;;;;;2.92;1.50;;;;;;;;;;4915635;29;20042;-62
2022/04/18 01:19:27;;;;;;;4.18;1.85;;;;;;;;;;4916240;29;20048;-65
2022/04/18 01:21:53;;;;;;;2.03;1.20;;;;;;;;;;4903330;29;20136;-62
2022/04/18 01:29:47;;;;;;;4.07;1.38;;;;;;;;;;4897804;29;20071;-62
2022/04/18 01:32:12;;;;;;;5.63;1.30;;;;;;;;;;4897606;29;20032;-63
2022/04/18 01:34:37;;;;;;;2.88;1.35;;;;;;;;;;4913871;29;20039;-63
2022/04/18 01:37:03;;;;;;;2.17;1.40;;;;;;;;;;4901789;29;20526;-63
2022/04/18 01:39:29;;;;;;;1.75;1.17;;;;;;;;;;4897942;29;20543;-62
2022/04/18 01:41:54;;;;;;;2.30;1.15;;;;;;;;;;4897701;29;20076;-64
2022/04/18 01:44:20;;;;;;;3.03;1.50;;;;;;;;;;4898901;29;20076;-65
2022/04/18 01:46:45;;;;;;;3.22;1.60;;;;;;;;;;4915574;29;20043;-66
2022/04/18 01:49:10;;;;;;;2.85;1.40;;;;;;;;;;4915852;29;20466;-62
2022/04/18 01:51:36;;;;;;;3.33;1.60;;;;;;;;;;4905857;29;20550;-63
2022/04/18 01:54:01;;;;;;;2.42;1.38;;;;;;;;;;4902968;29;20040;-62
2022/04/18 01:56:27;;;;;;;2.08;1.25;;;;;;;;;;4908207;29;20050;-63
2022/04/18 01:58:53;;;;;;;2.13;1.25;;;;;;;;;;4894544;29;20032;-61
2022/04/18 02:01:18;;;;;;;2.20;1.30;;;;;;;;;;4891269;29;20048;-60
2022/04/18 02:03:44;;;;;;;5.97;1.50;;;;;;;;;;4896357;29;20044;-62
2022/04/18 02:06:10;;;;;;;4.05;1.50;;;;;;;;;;4895240;29;20112;-61
2022/04/18 02:08:35;;;;;;;2.25;1.17;;;;;;;;;;4910508;29;20052;-63
2022/04/18 02:11:02;;;;;;;1.83;1.20;;;;;;;;;;4899658;29;20505;-62
2022/04/18 02:13:28;;;;;;;2.92;1.67;;;;;;;;;;4895969;29;20059;-63
2022/04/18 02:15:57;;;;;;;2.67;1.63;;;;;;;;;;4891595;29;20080;-62
2022/04/18 02:18:23;;;;;;;2.40;1.50;;;;;;;;;;4896462;29;20044;-62
2022/04/18 02:20:48;;;;;;;2.08;1.40;;;;;;;;;;4893950;29;20044;-62
2022/04/18 02:23:14;;;;;;;2.45;1.45;;;;;;;;;;4892585;29;20044;-61
2022/04/18 02:25:39;;;;;;;2.72;1.48;;;;;;;;;;4892858;29;20044;-63
2022/04/18 02:28:05;;;;;;;3.55;1.55;;;;;;;;;;4894069;29;20044;-62
2022/04/18 02:30:30;;;;;;;2.63;1.58;;;;;;;;;;4894615;29;20144;-62
2022/04/18 02:32:56;;;;;;;3.17;1.63;;;;;;;;;;4896030;29;20044;-64
2022/04/18 02:35:24;;;;;;;1.92;1.50;;;;;;;;;;4894840;29;20036;-61
2022/04/18 02:37:51;;;;;;;1.48;1.38;;;;;;;;;;4897545;29;20064;-63
2022/04/18 02:40:17;;;;;;;3.25;1.85;;;;;;;;;;4912885;29;20043;-61
2022/04/18 02:42:43;;;;;;;3.90;1.70;;;;;;;;;;4913610;29;20114;-63
2022/04/18 02:45:14;;;;;;;3.72;1.90;;;;;;;;;;4905946;28;20060;-62
2022/04/18 02:47:40;;;;;;;2.10;1.50;;;;;;;;;;4891917;29;20048;-63
2022/04/18 02:50:07;;;;;;;4.38;1.52;;;;;;;;;;4896644;29;20052;-67
2022/04/18 02:52:33;;;;;;;2.42;1.50;;;;;;;;;;4894856;29;20040;-63
2022/04/18 02:54:59;;;;;;;2.78;1.70;;;;;;;;;;4894013;29;20049;-62
2022/04/18 02:57:24;;;;;;;3.08;1.70;;;;;;;;;;4893242;29;20135;-63
2022/04/18 02:59:50;;;;;;;2.78;1.60;;;;;;;;;;4896910;29;20045;-63
2022/04/18 03:02:16;;;;;;;3.03;1.75;;;;;;;;;;4893024;29;20028;-62
2022/04/18 03:04:41;;;;;;;3.17;1.60;;;;;;;;;;4895584;29;20052;-62
2022/04/18 03:07:07;;;;;;;3.25;1.42;;;;;;;;;;4893157;29;20067;-62
2022/04/18 03:09:33;;;;;;;3.92;1.90;;;;;;;;;;4906310;29;20056;-63
2022/04/18 03:11:59;;;;;;;4.68;1.75;;;;;;;;;;4902500;29;20411;-63
2022/04/18 03:14:24;;;;;;;3.38;1.90;;;;;;;;;;4895667;29;20049;-63
2022/04/18 03:16:50;;;;;;;3.67;1.80;;;;;;;;;;4896415;29;20047;-62
2022/04/18 03:19:16;;;;;;;2.22;1.58;;;;;;;;;;4895990;29;20491;-62
2022/04/18 03:21:42;;;;;;;3.88;2.00;;;;;;;;;;4908540;29;20036;-63
2022/04/18 03:24:08;;;;;;;2.88;2.00;;;;;;;;;;4907640;29;20060;-62
2022/04/18 03:26:33;;;;;;;2.15;1.45;;;;;;;;;;4894943;29;20055;-62
2022/04/18 03:28:59;;;;;;;4.38;1.75;;;;;;;;;;4896679;29;20032;-63
2022/04/18 03:31:24;;;;;;;1.92;1.50;;;;;;;;;;4891491;29;20052;-63
2022/04/18 03:33:50;;;;;;;3.53;1.75;;;;;;;;;;4909366;29;20447;-62
2022/04/18 03:41:44;;;;;;;2.28;1.40;;;;;;;;;;4896230;29;20059;-62
2022/04/18 03:44:09;;;;;;;3.20;1.60;;;;;;;;;;4893812;29;20032;-62
2022/04/18 03:46:35;;;;;;;3.03;1.60;;;;;;;;;;4895677;29;20031;-61
2022/04/18 03:49:00;;;;;;;6.47;1.92;;;;;;;;;;4908944;29;20068;-61
2022/04/18 03:51:26;;;;;;;3.22;1.83;;;;;;;;;;4913476;29;20091;-62
2022/04/18 03:53:52;;;;;;;3.53;1.83;;;;;;;;;;4910554;29;20040;-61
2022/04/18 03:56:18;;;;;;;3.75;1.60;;;;;;;;;;4908948;29;20028;-62
2022/04/18 03:58:43;;;;;;;2.97;1.73;;;;;;;;;;4913390;29;20106;-62
2022/04/18 04:01:09;;;;;;;4.55;1.52;;;;;;;;;;4896137;29;20072;-63
2022/04/18 04:03:34;;;;;;;3.83;1.50;;;;;;;;;;4894174;29;20125;-62
2022/04/18 04:06:00;;;;;;;3.42;2.00;;;;;;;;;;4891633;29;20499;-63
2022/04/18 04:08:28;;;;;;;4.40;1.73;;;;;;;;;;4893056;29;20109;-62
2022/04/18 04:10:53;;;;;;;2.78;1.70;;;;;;;;;;4891532;29;20402;-62
2022/04/18 04:13:19;;;;;;;2.30;1.52;;;;;;;;;;4894191;29;20052;-63
2022/04/18 04:15:44;;;;;;;4.65;1.60;;;;;;;;;;4891522;29;20072;-63
2022/04/18 04:18:10;;;;;;;2.85;1.50;;;;;;;;;;4903691;29;20052;-62
2022/04/18 04:20:35;;;;;;;2.50;1.55;;;;;;;;;;4914620;29;20040;-64
2022/04/18 04:23:01;;;;;;;1.40;1.15;;;;;;;;;;4914183;29;20486;-63
2022/04/18 04:25:26;;;;;;;6.00;1.70;;;;;;;;;;4900147;29;20028;-62
2022/04/18 04:27:51;;;;;;;2.28;1.30;;;;;;;;;;4899345;29;20100;-61
2022/04/18 04:30:17;;;;;;;3.75;1.60;;;;;;;;;;4894741;29;20084;-63
2022/04/18 04:32:42;;;;;;;2.67;1.73;;;;;;;;;;4899054;29;20056;-64
2022/04/18 04:35:08;;;;;;;4.50;1.60;;;;;;;;;;4901296;29;20391;-64
2022/04/18 04:37:33;;;;;;;5.63;1.45;;;;;;;;;;4900814;29;20060;-62
2022/04/18 04:39:59;;;;;;;3.40;1.48;;;;;;;;;;4916088;29;20044;-63
2022/04/18 04:42:24;;;;;;;5.45;1.58;;;;;;;;;;4919604;29;20526;-63
2022/04/18 04:44:49;;;;;;;3.75;1.60;;;;;;;;;;4910483;29;20048;-63
2022/04/18 04:47:15;;;;;;;2.55;1.50;;;;;;;;;;4895001;29;20091;-62
2022/04/18 04:49:40;;;;;;;2.85;1.52;;;;;;;;;;4899051;29;20032;-62
2022/04/18 04:52:06;;;;;;;2.33;1.48;;;;;;;;;;4901613;29;20052;-64
2022/04/18 04:54:32;;;;;;;2.08;1.50;;;;;;;;;;4901863;29;20049;-63
2022/04/18 04:56:57;;;;;;;3.42;1.80;;;;;;;;;;4899109;29;20048;-62
2022/04/18 04:59:23;;;;;;;2.90;2.10;;;;;;;;;;4902095;29;20052;-62
2022/04/18 05:01:48;;;;;;;3.80;1.40;;;;;;;;;;4921055;29;20043;-64
2022/04/18 05:04:14;;;;;;;2.75;1.58;;;;;;;;;;4919787;29;20546;-61
2022/04/18 05:06:40;;;;;;;3.65;1.65;;;;;;;;;;4904928;29;20048;-63
2022/04/18 05:09:06;;;;;;;1.98;1.33;;;;;;;;;;4908296;29;20402;-63
2022/04/18 05:11:32;;;;;;;3.75;1.63;;;;;;;;;;4919711;29;20063;-63
2022/04/18 05:13:57;;;;;;;3.70;2.13;;;;;;;;;;4920117;29;20028;-63
2022/04/18 05:16:24;;;;;;;1.85;1.40;;;;;;;;;;4900408;29;20052;-63
2022/04/18 05:18:49;;;;;;;3.78;1.70;;;;;;;;;;4911081;29;20047;-64
2022/04/18 05:21:15;;;;;;;3.00;1.55;;;;;;;;;;4915146;29;20055;-63
2022/04/18 05:23:40;;;;;;;2.55;1.50;;;;;;;;;;4913393;29;20446;-65
2022/04/18 05:26:06;;;;;;;4.68;1.58;;;;;;;;;;4897168;29;20043;-50
2022/04/18 05:28:31;;;;;;;3.63;1.60;;;;;;;;;;4899497;29;20025;-54
2022/04/18 05:30:57;;;;;;;4.30;2.05;;;;;;;;;;4897569;29;20428;-53
2022/04/18 05:33:23;;;;;;;2.75;1.50;;;;;;;;;;4901184;29;20059;-58
2022/04/18 05:35:50;;;;;;;4.13;2.15;;;;;;;;;;4899582;29;20398;-53
2022/04/18 05:38:15;;;;;;;4.18;2.45;;;;;;;;;;4897146;29;20128;-55
2022/04/18 05:40:41;;;;;;;2.67;1.70;;;;;;;;;;4893152;29;20123;-56
2022/04/18 05:43:08;;;;;;;2.53;1.38;;;;;;;;;;4897159;29;20064;-56
2022/04/18 05:45:34;;;;;;;1.65;1.20;;;;;;;;;;4897341;29;20104;-54
2022/04/18 05:48:00;;;;;;;3.85;1.67;;;;;;;;;;4893053;29;20132;-57
2022/04/18 05:50:25;;;;;;;3.15;1.42;;;;;;;;;;4892936;29;20136;-56
2022/04/18 05:52:51;;;;;;;2.83;1.55;;;;;;;;;;4895068;29;20032;-55
2022/04/18 05:55:16;;;;;;;2.80;1.40;;;;;;;;;;4913802;29;20142;-55
2022/04/18 05:57:42;;;;;;;2.35;1.27;;;;;;;;;;4904532;29;20099;-51
2022/04/18 06:00:07;;;;;;;2.28;1.20;;;;;;;;;;4906230;29;20569;-55
2022/04/18 06:02:33;;;;;;;2.78;1.23;;;;;;;;;;4912168;29;20052;-56
2022/04/18 06:04:58;;;;;;;2.40;1.35;;;;;;;;;;4895671;29;20043;-57
2022/04/18 06:07:24;;;;;;;4.72;1.10;;;;;;;;;;4893536;29;20055;-57
2022/04/18 06:09:49;;;;;;;1.98;1.00;;;;;;;;;;4911529;29;20482;-56
2022/04/18 06:12:21;;;;;;;2.20;1.30;;;;;;;;;;4916755;29;20470;-56
2022/04/18 06:14:47;;;;;;;1.20;1.10;;;;;;;;;;4916061;29;20407;-55
2022/04/18 06:17:13;;;;;;;3.13;1.15;;;;;;;;;;4911034;28;20032;-54
2022/04/18 06:19:38;;;;;;;1.58;1.23;;;;;;;;;;4894914;29;20036;-55
2022/04/18 06:22:04;;;;;;;1.83;1.15;;;;;;;;;;4892782;29;20049;-54
2022/04/18 06:24:29;;;;;;;1.98;0.93;;;;;;;;;;4897208;29;20503;-56
2022/04/18 06:26:55;;;;;;;2.00;1.10;;;;;;;;;;4897198;29;20127;-54
2022/04/18 06:29:20;;;;;;;2.88;1.13;;;;;;;;;;4894870;29;20056;-55
2022/04/18 06:31:46;;;;;;;3.30;1.48;;;;;;;;;;4896820;29;20064;-53
2022/04/18 06:34:12;;;;;;;2.60;1.40;;;;;;;;;;4896224;29;20080;-55
2022/04/18 06:36:38;;;;;;;3.78;1.30;;;;;;;;;;4893332;29;20569;-56
2022/04/18 06:39:04;;;;;;;2.85;1.13;;;;;;;;;;4896237;29;20140;-53
2022/04/18 06:41:30;;;;;;;3.30;1.25;;;;;;;;;;4896811;29;20057;-53
2022/04/18 06:43:55;;;;;;;2.13;1.10;;;;;;;;;;4896684;29;20519;-52
2022/04/18 06:46:21;;;;;;;2.28;1.40;;;;;;;;;;4893516;29;20082;-57
2022/04/18 06:48:46;;;;;;;2.13;1.20;;;;;;;;;;4894054;29;20484;-55
2022/04/18 06:51:12;;;;;;;3.17;1.40;;;;;;;;;;4894357;29;20492;-54
2022/04/18 06:53:37;;;;;;;1.52;1.00;;;;;;;;;;4896497;29;20061;-56
2022/04/18 06:58:47;;;;;;;4.75;1.65;;;;;;;;;;4892879;29;20180;-56
2022/04/18 07:01:12;;;;;;;2.47;1.23;;;;;;;;;;4893122;29;20558;-55
2022/04/18 07:03:37;;;;;;;2.13;1.20;;;;;;;;;;4906072;29;20070;-54
2022/04/18 07:06:03;;;;;;;2.88;1.45;;;;;;;;;;4912939;29;20497;-51
2022/04/18 07:08:29;;;;;;;2.67;1.23;;;;;;;;;;4913708;29;20052;-52
2022/04/18 07:10:54;;;;;;;1.70;1.27;;;;;;;;;;4915282;29;20044;-56
2022/04/18 07:13:19;;;;;;;2.72;1.27;;;;;;;;;;4897062;29;20060;-54
2022/04/18 07:15:45;;;;;;;2.20;1.50;;;;;;;;;;4895436;29;20068;-51
2022/04/18 07:18:11;;;;;;;1.83;1.25;;;;;;;;;;4893606;29;20057;-56
2022/04/18 07:20:36;;;;;;;4.35;1.60;;;;;;;;;;4892378;29;20120;-53
2022/04/18 07:23:02;;;;;;;1.80;1.30;;;;;;;;;;4892944;29;20427;-54
2022/04/18 07:25:27;;;;;;;2.90;1.42;;;;;;;;;;4892204;29;20029;-56
2022/04/18 07:27:53;;;;;;;3.38;1.35;;;;;;;;;;4893318;29;20068;-55
2022/04/18 07:30:18;;;;;;;3.67;1.70;;;;;;;;;;4894346;29;20049;-54
2022/04/18 07:32:44;;;;;;;3.38;1.60;;;;;;;;;;4894032;29;20059;-54
2022/04/18 07:35:11;;;;;;;3.03;1.50;;;;;;;;;;4894236;29;20036;-55
2022/04/18 07:37:37;;;;;;;2.58;1.52;;;;;;;;;;4896718;29;20040;-51
2022/04/18 07:40:03;;;;;;;3.70;1.73;;;;;;;;;;4896212;29;20104;-56
2022/04/18 07:42:29;;;;;;;2.88;1.65;;;;;;;;;;4896105;29;20057;-56
2022/04/18 07:44:54;;;;;;;3.10;1.50;;;;;;;;;;4901065;29;20052;-54
2022/04/18 07:47:20;;;;;;;4.00;1.65;;;;;;;;;;4911202;29;20364;-53
2022/04/18 07:49:45;;;;;;;2.58;1.60;;;;;;;;;;4913951;29;20475;-55
2022/04/18 07:52:12;;;;;;;2.80;1.65;;;;;;;;;;4897850;29;20056;-56
2022/04/18 07:54:38;;;;;;;2.53;1.75;;;;;;;;;;4892458;29;20396;-57
2022/04/18 07:57:04;;;;;;;3.95;1.98;;;;;;;;;;4893999;29;20040;-56
2022/04/18 07:59:31;;;;;;;2.25;1.50;;;;;;;;;;4893216;29;20052;-52
2022/04/18 08:01:56;;;;;;;3.47;1.80;;;;;;;;;;4894861;29;20384;-55
2022/04/18 08:04:21;;;;;;;2.95;1.77;;;;;;;;;;4893931;29;20059;-57
2022/04/18 08:06:47;;;;;;;5.75;1.73;;;;;;;;;;4909170;29;20040;-56
2022/04/18 08:09:12;;;;;;;2.95;1.80;;;;;;;;;;4905133;29;20052;-52
2022/04/18 08:11:38;;;;;;;3.70;1.90;;;;;;;;;;4900356;29;20052;-56
2022/04/18 08:14:03;;;;;;;2.78;1.88;;;;;;;;;;4908697;29;20039;-57
2022/04/18 08:16:29;;;;;;;3.10;1.90;;;;;;;;;;4892206;29;20469;-57
2022/04/18 08:18:55;;;;;;;4.90;1.65;;;;;;;;;;4909378;29;20040;-52
2022/04/18 08:21:20;;;;;;;2.75;1.80;;;;;;;;;;4903175;29;20068;-54
2022/04/18 08:23:48;;;;;;;3.20;2.25;;;;;;;;;;4901990;29;20056;-54
2022/04/18 08:26:14;;;;;;;6.70;2.15;;;;;;;;;;4909544;29;20028;-54
2022/04/18 08:28:40;;;;;;;2.50;1.70;;;;;;;;;;4912129;29;20487;-53
2022/04/18 08:31:08;;;;;;;2.35;1.80;;;;;;;;;;4911406;29;20139;-55
2022/04/18 08:33:34;;;;;;;4.25;2.28;;;;;;;;;;4913599;29;20059;-54
2022/04/18 08:36:00;;;;;;;7.43;1.63;;;;;;;;;;4912955;29;20048;-56
2022/04/18 08:38:26;;;;;;;2.92;1.73;;;;;;;;;;4911492;29;20048;-50
2022/04/18 08:40:56;;;;;;;4.95;1.98;;;;;;;;;;4914614;29;20036;-56
2022/04/18 08:43:21;;;;;;;5.43;2.20;;;;;;;;;;4892271;29;20052;-53
2022/04/18 08:45:47;;;;;;;3.42;2.33;;;;;;;;;;4890103;29;20574;-58
2022/04/18 08:53:42;;;;;;;4.43;2.35;;;;;;;;;;4892445;29;20574;-56
2022/04/18 08:56:08;;;;;;;3.67;2.28;;;;;;;;;;4890901;29;20040;-53
2022/04/18 08:58:34;;;;;;;6.63;2.40;;;;;;;;;;4892756;29;20033;-54
2022/04/18 09:01:01;;;;;;;5.15;2.20;;;;;;;;;;4897409;29;20048;-52
2022/04/18 09:03:26;;;;;;;4.13;2.15;;;;;;;;;;4895557;29;20100;-61
2022/04/18 09:06:08;;;;;;;2.67;1.77;;;;;;;;;;4894381;29;20052;-55
2022/04/18 09:08:41;;;;;;;3.75;2.25;;;;;;;;;;4894528;29;20463;-54
2022/04/18 09:11:07;;;;;;;4.05;2.22;;;;;;;;;;4916123;29;20087;-52
2022/04/18 09:13:32;;;;;;;8.90;2.55;;;;;;;;;;4919171;29;20036;-54
2022/04/18 09:15:59;;;;;;;3.55;2.10;;;;;;;;;;4918017;29;20386;-58
2022/04/18 09:18:25;;;;;;;4.13;2.35;;;;;;;;;;4914921;28;20113;-50
2022/04/18 09:20:53;;;;;;;4.40;2.25;;;;;;;;;;4908725;29;20057;-55
2022/04/18 09:23:29;;;;;;;3.03;2.22;;;;;;;;;;4893242;29;20400;-55
2022/04/18 09:25:58;;;;;;;3.42;2.17;;;;;;;;;;4894752;29;20663;-56
2022/04/18 09:28:28;;;;;;;4.95;2.40;;;;;;;;;;4897774;29;20159;-52
2022/04/18 09:31:16;;;;;;;3.08;2.00;;;;;;;;;;4898129;29;20047;-52
2022/04/18 09:33:53;;;;;;;4.25;2.00;;;;;;;;;;4898257;29;20160;-54
2022/04/18 09:36:21;;;;;;;3.50;2.22;;;;;;;;;;4893071;29;20408;-55
2022/04/18 09:38:52;;;;;;;4.72;2.10;;;;;;;;;;4895766;29;20552;-53
2022/04/18 09:41:33;;;;;;;3.20;1.92;;;;;;;;;;4894917;29;20048;-55
2022/04/18 09:43:59;;;;;;;3.92;2.17;;;;;;;;;;4896821;29;20065;-57
2022/04/18 09:46:25;;;;;;;4.70;1.92;;;;;;;;;;4896866;29;20072;-56
2022/04/18 09:48:52;;;;;;;3.72;1.95;;;;;;;;;;4896396;29;20166;-57
2022/04/18 09:51:34;;;;;;;4.80;2.40;;;;;;;;;;4895333;29;20053;-54
2022/04/18 09:54:00;;;;;;;4.13;2.22;;;;;;;;;;4893859;29;20249;-53
2022/04/18 09:56:27;;;;;;;2.72;2.00;;;;;;;;;;4898813;29;20052;-55
2022/04/18 09:58:53;;;;;;;3.65;2.25;;;;;;;;;;4915996;29;20035;-57
2022/04/18 10:01:19;;;;;;;3.42;2.00;;;;;;;;;;4899769;29;20056;-56
2022/04/18 10:03:46;;;;;;;3.20;2.00;;;;;;;;;;4897880;29;20515;-56
2022/04/18 10:06:12;;;;;;;2.78;1.67;;;;;;;;;;4893314;29;20040;-53
2022/04/18 10:08:38;;;;;;;4.03;1.80;;;;;;;;;;4893895;29;20063;-53
2022/04/18 10:11:08;;;;;;;5.60;1.70;;;;;;;;;;4890751;29;20044;-54
2022/04/18 10:13:35;;;;;;;2.40;1.55;;;;;;;;;;4896294;29;20088;-54
2022/04/18 10:16:01;;;;;;;2.88;1.55;;;;;;;;;;4895982;29;20413;-55
2022/04/18 10:18:27;;;;;;;4.30;1.80;;;;;;;;;;4908697;29;20048;-56
2022/04/18 10:21:08;;;;;;;4.03;1.90;;;;;;;;;;4916035;29;20051;-55
2022/04/18 10:24:04;;;;;;;3.20;1.85;;;;;;;;;;4909379;29;20053;-57
2022/04/18 10:27:14;;;;;;;2.47;1.80;;;;;;;;;;4901592;29;20044;-54
2022/04/18 10:29:45;;;;;;;3.05;1.45;;;;;;;;;;4908616;29;20567;-53
2022/04/18 10:32:16;;;;;;;2.40;1.70;;;;;;;;;;4895816;29;20036;-53
2022/04/18 10:34:42;;;;;;;3.63;1.90;;;;;;;;;;4897046;29;20067;-56
2022/04/18 10:37:08;;;;;;;2.80;1.58;;;;;;;;;;4894910;29;20132;-58
2022/04/18 10:39:35;;;;;;;4.00;1.80;;;;;;;;;;4896092;29;20057;-56
2022/04/18 10:42:21;;;;;;;4.13;2.28;;;;;;;;;;4902608;29;20055;-56
2022/04/18 10:44:59;;;;;;;2.88;2.00;;;;;;;;;;4914036;29;20060;-55
2022/04/18 10:47:25;;;;;;;5.55;1.90;;;;;;;;;;4911068;29;20131;-56
2022/04/18 10:50:19;;;;;;;3.83;2.17;;;;;;;;;;4914705;29;20107;-56
2022/04/18 10:53:08;;;;;;;4.38;2.10;;;;;;;;;;4911182;29;20052;-54
2022/04/18 10:55:33;;;;;;;3.25;1.88;;;;;;;;;;4912855;29;20143;-55
2022/04/18 10:58:09;;;;;;;2.42;1.88;;;;;;;;;;4914961;29;20131;-57
2022/04/18 11:00:52;;;;;;;4.63;1.95;;;;;;;;;;4915766;29;20051;-53
2022/04/18 11:03:36;;;;;;;3.35;1.95;;;;;;;;;;4910517;29;20059;-55
2022/04/18 11:06:24;;;;;;;3.20;1.95;;;;;;;;;;4910264;29;20079;-55
2022/04/18 11:09:06;;;;;;;3.03;1.83;;;;;;;;;;4909685;29;20036;-56
2022/04/18 11:11:42;;;;;;;3.88;1.83;;;;;;;;;;4910032;29;20483;-54
2022/04/18 11:14:16;;;;;;;3.13;1.90;;;;;;;;;;4914872;29;20036;-61
2022/04/18 11:16:42;;;;;;;3.67;2.10;;;;;;;;;;4912775;29;20459;-60
2022/04/18 11:19:18;;;;;;;4.07;1.90;;;;;;;;;;4914092;29;20048;-60
2022/04/18 11:21:59;;;;;;;2.97;1.75;;;;;;;;;;4911220;29;20044;-61
2022/04/18 11:24:40;;;;;;;3.00;1.75;;;;;;;;;;4911020;29;20595;-61
2022/04/18 11:27:26;;;;;;;2.67;1.58;;;;;;;;;;4913438;29;20044;-61
2022/04/18 11:29:59;;;;;;;3.60;1.73;;;;;;;;;;4915403;29;20364;-61
2022/04/18 11:32:36;;;;;;;3.25;1.70;;;;;;;;;;4914221;29;20040;-60
2022/04/18 11:35:05;;;;;;;4.10;1.80;;;;;;;;;;4909340;29;20044;-55
2022/04/18 11:37:39;;;;;;;2.60;1.80;;;;;;;;;;4913672;29;20048;-51
2022/04/18 11:40:09;;;;;;;3.25;1.75;;;;;;;;;;4912511;29;20051;-52
2022/04/18 11:42:35;;;;;;;3.10;1.67;;;;;;;;;;4913500;29;20131;-53
2022/04/18 11:45:04;;;;;;;5.07;1.80;;;;;;;;;;4913590;29;20076;-52
2022/04/18 11:48:02;;;;;;;3.22;1.90;;;;;;;;;;4906342;29;20041;-54
2022/04/18 11:50:28;;;;;;;2.20;1.52;;;;;;;;;;4896484;29;20052;-53
2022/04/18 11:53:05;;;;;;;4.10;1.67;;;;;;;;;;4912048;29;20046;-55
2022/04/18 11:55:31;;;;;;;3.47;1.67;;;;;;;;;;4911802;29;20555;-54
2022/04/18 11:57:57;;;;;;;2.65;1.70;;;;;;;;;;4895027;29;20047;-55
2022/04/18 12:08:42;;;;;;;3.58;1.95;;;;;;;;;;4891611;29;20055;-56
2022/04/18 12:11:07;;;;;;;2.65;1.60;;;;;;;;;;4893548;29;20655;-55
2022/04/18 12:13:40;;;;;;;3.38;1.77;;;;;;;;;;4891525;29;20031;-56
2022/04/18 12:16:05;;;;;;;2.60;1.60;;;;;;;;;;4888109;29;20083;-56
2022/04/18 12:18:30;;;;;;;3.90;1.30;;;;;;;;;;4893446;29;20495;-55
2022/04/18 12:20:56;;;;;;;2.08;1.45;;;;;;;;;;4892446;29;20108;-55
2022/04/18 12:23:26;;;;;;;2.13;1.63;;;;;;;;;;4892795;29;20051;-56
2022/04/18 12:25:59;;;;;;;2.33;1.58;;;;;;;;;;4893872;29;20041;-53
2022/04/18 12:28:28;;;;;;;;;;;;;;;;;;4905594;29;20105;-54
2022/04/18 12:30:55;;;;;;;2.17;1.40;;;;;;;;;;4891343;29;20385;-54
2022/04/18 12:33:22;;;;;;;1.92;1.30;;;;;;;;;;4893648;29;20045;-55
2022/04/18 12:35:51;;;;;;;3.95;1.50;;;;;;;;;;4891030;29;20059;-54
2022/04/18 12:38:17;;;;;;;3.22;1.58;;;;;;;;;;4889431;29;20115;-54
2022/04/18 12:40:45;;;;;;;1.95;1.60;;;;;;;;;;4890525;29;20040;-55
2022/04/18 12:43:15;;;;;;;2.97;1.70;;;;;;;;;;4908312;29;20576;-54
2022/04/18 12:45:47;;;;;;;2.85;2.25;;;;;;;;;;4913605;29;20533;-55
2022/04/18 12:48:13;;;;;;;4.30;2.20;;;;;;;;;;4906415;29;20087;-55
2022/04/18 12:50:39;;;;;;;2.22;1.73;;;;;;;;;;4901444;29;20088;-57
2022/04/18 12:53:05;;;;;;;1.70;1.42;;;;;;;;;;4910234;29;20347;-52
2022/04/18 12:55:31;;;;;;;2.42;1.70;;;;;;;;;;4910450;29;20157;-56
2022/04/18 12:57:57;;;;;;;5.75;1.70;;;;;;;;;;4898763;29;20077;-57
2022/04/18 13:00:23;;;;;;;5.22;2.90;;;;;;;;;;4904410;29;20060;-55
2022/04/18 13:03:00;;;;;;;2.05;1.40;;;;;;;;;;4912565;29;20506;-57
2022/04/18 13:05:28;;;;;;;1.95;1.52;;;;;;;;;;4911015;29;20048;-54
2022/04/18 13:08:04;;;;;;;2.38;1.58;;;;;;;;;;4892432;29;20048;-60
2022/04/18 13:10:35;;;;;;;5.07;2.40;;;;;;;;;;4916346;29;20450;-57
2022/04/18 13:13:06;;;;;;;3.97;1.73;;;;;;;;;;4913793;29;20048;-55
2022/04/18 13:15:32;;;;;;;2.42;1.70;;;;;;;;;;4913613;29;20063;-54
2022/04/18 13:18:01;;;;;;;2.30;1.60;;;;;;;;;;4915998;29;20115;-57
2022/04/18 13:20:27;;;;;;;2.25;1.77;;;;;;;;;;4910094;29;20278;-56
2022/04/18 13:22:52;;;;;;;1.52;1.42;;;;;;;;;;4912621;29;20534;-55
2022/04/18 13:25:18;;;;;;;3.35;1.50;;;;;;;;;;4912797;29;20403;-54
2022/04/18 13:27:43;;;;;;;2.97;1.60;;;;;;;;;;4914327;29;20078;-57
2022/04/18 13:30:09;;;;;;;5.75;2.38;;;;;;;;;;4911241;29;20127;-55
2022/04/18 13:32:35;;;;;;;2.00;1.50;;;;;;;;;;4910379;29;20513;-59
2022/04/18 13:35:02;;;;;;;2.55;1.73;;;;;;;;;;4911148;29;20048;-62
2022/04/18 13:37:29;;;;;;;4.30;2.03;;;;;;;;;;4910195;29;20032;-55
2022/04/18 13:39:54;;;;;;;2.50;1.70;;;;;;;;;;4910378;29;20119;-56
2022/04/18 13:42:19;;;;;;;3.60;1.60;;;;;;;;;;4911413;29;20144;-54
2022/04/18 13:44:45;;;;;;;3.15;1.50;;;;;;;;;;4913401;28;20055;-56
2022/04/18 13:47:11;;;;;;;2.92;1.65;;;;;;;;;;4913392;29;20071;-54
2022/04/18 13:49:37;;;;;;;8.35;1.63;;;;;;;;;;4912632;29;20052;-57
2022/04/18 13:52:08;;;;;;;2.65;1.40;;;;;;;;;;4911671;29;20059;-57
2022/04/18 13:54:35;;;;;;;1.40;1.27;;;;;;;;;;4914749;29;20130;-56
2022/04/18 13:57:00;;;;;;;2.85;1.80;;;;;;;;;;4909864;29;20051;-56
2022/04/18 13:59:26;;;;;;;2.63;1.83;;;;;;;;;;4912659;28;20055;-56
2022/04/18 14:01:51;;;;;;;1.85;1.42;;;;;;;;;;4916360;29;20032;-55
2022/04/18 14:04:17;;;;;;;4.07;1.48;;;;;;;;;;4913899;29;20087;-56
2022/04/18 14:06:43;;;;;;;3.08;1.88;;;;;;;;;;4902896;29;20059;-55
2022/04/18 14:09:09;;;;;;;2.70;1.50;;;;;;;;;;4895670;29;20159;-55
2022/04/18 14:11:34;;;;;;;1.92;1.58;;;;;;;;;;4900640;29;20070;-55
2022/04/18 14:14:00;;;;;;;2.08;1.63;;;;;;;;;;4913820;29;20035;-57
2022/04/18 14:22:13;;;;;;;2.45;1.27;;;;;;;;;;4894039;29;20510;-58
2022/04/18 14:24:39;;;;;;;1.73;1.27;;;;;;;;;;4892860;29;20080;-57
2022/04/18 14:27:04;;;;;;;2.38;1.60;;;;;;;;;;4899189;29;20399;-56
2022/04/18 14:29:29;;;;;;;3.25;1.88;;;;;;;;;;4910511;29;20056;-57
2022/04/18 14:31:55;;;;;;;2.85;1.50;;;;;;;;;;4894394;29;20387;-56
2022/04/18 14:34:20;;;;;;;2.40;1.23;;;;;;;;;;4895024;29;20419;-57
2022/04/18 14:36:47;;;;;;;2.10;1.40;;;;;;;;;;4890562;29;20566;-56
2022/04/18 14:39:13;;;;;;;4.93;1.30;;;;;;;;;;4903515;29;20067;-56
2022/04/18 14:41:38;;;;;;;2.05;1.40;;;;;;;;;;4908432;28;20040;-56
2022/04/18 14:44:03;;;;;;;1.70;1.40;;;;;;;;;;4896100;29;20028;-57
2022/04/18 14:46:29;;;;;;;1.80;1.20;;;;;;;;;;4913982;29;20476;-61
2022/04/18 14:48:55;;;;;;;2.28;1.13;;;;;;;;;;4912315;29;20044;-61
2022/04/18 14:51:24;;;;;;;1.63;1.23;;;;;;;;;;4901524;29;20053;-61
2022/04/18 14:53:50;;;;;;;4.35;1.45;;;;;;;;;;4891102;29;20044;-61
2022/04/18 14:56:15;;;;;;;2.70;1.48;;;;;;;;;;4893916;29;20040;-61
2022/04/18 14:58:40;;;;;;;1.45;1.17;;;;;;;;;;4895466;29;20092;-61
2022/04/18 15:01:07;;;;;;;2.85;1.23;;;;;;;;;;4894499;29;20072;-61
2022/04/18 15:03:32;;;;;;;2.00;1.20;;;;;;;;;;4895055;29;20048;-61
2022/04/18 15:05:58;;;;;;;1.15;1.02;;;;;;;;;;4892884;29;20479;-61
2022/04/18 15:08:24;;;;;;;3.28;2.28;;;;;;;;;;4894331;29;20143;-60
2022/04/18 15:10:51;;;;;;;4.25;2.17;;;;;;;;;;4896680;29;20119;-62
2022/04/18 15:13:17;;;;;;;3.85;1.90;;;;;;;;;;4893247;29;20470;-58
2022/04/18 15:15:42;;;;;;;2.25;1.30;;;;;;;;;;4892763;29;20048;-60
2022/04/18 15:18:08;;;;;;;3.83;1.45;;;;;;;;;;4891158;29;20052;-59